createdAt,value
2023-04-30T00:00:09.534Z,7.50
2023-04-30T00:02:39.725Z,7.50
2023-04-30T00:05:07.626Z,7.40
2023-04-30T00:07:34.993Z,7.40
2023-04-30T00:10:03.032Z,7.40
2023-04-30T00:12:30.207Z,7.40
2023-04-30T00:14:57.608Z,7.40
2023-04-30T00:17:24.960Z,7.30
2023-04-30T00:19:52.836Z,7.30
2023-04-30T00:22:20.337Z,7.30
2023-04-30T00:24:47.563Z,7.30
2023-04-30T00:27:14.741Z,7.30
2023-04-30T00:29:42.005Z,7.30
2023-04-30T00:32:09.933Z,7.20
2023-04-30T00:34:37.159Z,7.60
2023-04-30T00:37:04.575Z,7.20
2023-04-30T00:39:32.102Z,7.20
2023-04-30T00:42:02.782Z,7.10
2023-04-30T00:44:30.022Z,7.10
2023-04-30T00:46:57.562Z,7.10
2023-04-30T00:49:24.988Z,7.10
2023-04-30T00:51:54.474Z,7.00
2023-04-30T00:54:22.262Z,7.00
2023-04-30T00:56:49.643Z,7.00
2023-04-30T00:59:17.351Z,7.00
2023-04-30T01:01:44.659Z,7.00
2023-04-30T01:04:12.521Z,6.90
2023-04-30T01:06:40.164Z,6.90
2023-04-30T01:09:07.873Z,7.20
2023-04-30T01:12:00.518Z,6.80
2023-04-30T01:14:45.955Z,6.80
2023-04-30T01:17:41.965Z,6.70
2023-04-30T01:20:11.765Z,6.70
2023-04-30T01:22:52.293Z,6.70
2023-04-30T01:25:41.526Z,6.70
2023-04-30T01:28:20.253Z,6.70
2023-04-30T01:30:47.705Z,6.60
2023-04-30T01:33:15.206Z,6.60
2023-04-30T01:36:10.859Z,6.60
2023-04-30T01:39:24.919Z,6.60
2023-04-30T01:42:13.959Z,6.50
2023-04-30T01:45:27.098Z,6.50
2023-04-30T01:48:20.181Z,6.50
2023-04-30T01:51:09.848Z,6.40
2023-04-30T01:53:43.155Z,6.40
2023-04-30T01:56:19.651Z,6.40
2023-04-30T01:58:50.451Z,6.40
2023-04-30T02:01:32.570Z,6.30
2023-04-30T02:04:00.468Z,6.30
2023-04-30T02:06:31.371Z,6.30
2023-04-30T02:09:03.576Z,7.20
2023-04-30T02:11:31.457Z,6.30
2023-04-30T02:13:58.664Z,6.30
2023-04-30T02:16:26.310Z,6.30
2023-04-30T02:18:53.676Z,6.20
2023-04-30T02:21:21.137Z,6.30
2023-04-30T02:23:48.415Z,6.20
2023-04-30T02:26:15.970Z,6.20
2023-04-30T02:28:43.300Z,6.20
2023-04-30T02:31:11.297Z,6.10
2023-04-30T02:33:38.774Z,6.10
2023-04-30T02:36:06.383Z,6.10
2023-04-30T02:38:33.655Z,6.10
2023-04-30T02:41:02.333Z,6.10
2023-04-30T02:43:29.669Z,6.10
2023-04-30T02:45:56.964Z,6.00
2023-04-30T02:48:24.285Z,6.00
2023-04-30T02:50:51.408Z,6.00
2023-04-30T02:53:18.692Z,6.00
2023-04-30T02:55:46.169Z,6.00
2023-04-30T02:58:13.630Z,6.00
2023-04-30T03:00:40.947Z,6.00
2023-04-30T03:03:08.356Z,6.00
2023-04-30T03:05:35.694Z,5.90
2023-04-30T03:08:03.409Z,6.00
2023-04-30T03:10:30.669Z,5.90
2023-04-30T03:12:57.911Z,5.90
2023-04-30T03:15:25.074Z,5.90
2023-04-30T03:17:52.244Z,5.90
2023-04-30T03:20:19.470Z,5.90
2023-04-30T03:22:46.627Z,5.90
2023-04-30T03:25:13.876Z,5.80
2023-04-30T03:27:41.056Z,5.90
2023-04-30T03:30:08.913Z,5.90
2023-04-30T03:32:36.176Z,5.90
2023-04-30T03:35:04.092Z,5.90
2023-04-30T03:37:31.798Z,5.90
2023-04-30T03:39:59.033Z,5.90
2023-04-30T03:42:27.419Z,5.90
2023-04-30T03:44:54.635Z,5.90
2023-04-30T03:47:25.936Z,5.90
2023-04-30T03:49:55.841Z,5.90
2023-04-30T03:52:24.220Z,5.90
2023-04-30T03:54:51.523Z,6.00
2023-04-30T03:57:20.620Z,6.00
2023-04-30T03:59:48.117Z,6.10
2023-04-30T04:02:16.111Z,6.10
2023-04-30T04:04:43.947Z,6.20
2023-04-30T04:07:11.580Z,6.20
2023-04-30T04:09:38.807Z,6.30
2023-04-30T04:12:06.418Z,6.30
2023-04-30T04:14:33.837Z,6.40
2023-04-30T04:17:01.944Z,6.40
2023-04-30T04:19:29.210Z,6.50
2023-04-30T04:21:57.801Z,6.50
2023-04-30T04:24:26.536Z,6.60
2023-04-30T04:26:54.012Z,6.60
2023-04-30T04:29:21.556Z,6.70
2023-04-30T04:31:51.094Z,6.80
2023-04-30T04:34:20.142Z,6.90
2023-04-30T04:36:47.756Z,7.00
2023-04-30T04:39:16.150Z,7.00
2023-04-30T04:41:43.365Z,7.10
2023-04-30T04:44:10.661Z,7.20
2023-04-30T04:46:38.654Z,7.40
2023-04-30T04:49:06.541Z,7.50
2023-04-30T04:51:33.874Z,7.60
2023-04-30T04:54:01.181Z,7.80
2023-04-30T04:56:28.392Z,8.00
2023-04-30T04:58:55.737Z,8.00
2023-04-30T05:01:23.377Z,8.00
2023-04-30T05:03:51.112Z,8.20
2023-04-30T05:06:19.924Z,8.20
2023-04-30T05:08:47.066Z,8.30
2023-04-30T05:11:15.702Z,8.30
2023-04-30T05:13:43.421Z,8.40
2023-04-30T05:16:10.591Z,8.50
2023-04-30T05:18:37.809Z,8.70
2023-04-30T05:21:05.058Z,8.70
2023-04-30T05:23:32.386Z,8.90
2023-04-30T05:25:59.660Z,9.20
2023-04-30T05:28:26.831Z,9.20
2023-04-30T05:30:53.971Z,9.40
2023-04-30T05:33:22.006Z,9.60
2023-04-30T05:35:49.582Z,9.70
2023-04-30T05:38:19.778Z,9.80
2023-04-30T05:40:47.815Z,9.90
2023-04-30T05:43:15.074Z,9.90
2023-04-30T05:45:46.578Z,10.00
2023-04-30T05:48:14.491Z,10.20
2023-04-30T05:50:43.533Z,10.00
2023-04-30T05:53:10.786Z,10.10
2023-04-30T05:55:38.805Z,10.20
2023-04-30T05:58:06.925Z,10.40
2023-04-30T06:00:34.359Z,10.60
2023-04-30T06:03:02.111Z,10.60
2023-04-30T06:05:29.756Z,10.30
2023-04-30T06:07:58.075Z,10.30
2023-04-30T06:10:29.239Z,10.40
2023-04-30T06:13:00.180Z,10.50
2023-04-30T06:15:27.745Z,10.50
2023-04-30T06:17:58.985Z,11.10
2023-04-30T06:20:32.553Z,10.70
2023-04-30T06:23:00.143Z,10.70
2023-04-30T06:25:27.311Z,10.70
2023-04-30T06:27:54.636Z,10.60
2023-04-30T06:30:21.762Z,10.60
2023-04-30T06:32:49.077Z,10.60
2023-04-30T06:35:17.497Z,10.60
2023-04-30T06:37:44.771Z,10.70
2023-04-30T06:40:12.259Z,10.80
2023-04-30T06:42:39.426Z,11.20
2023-04-30T06:45:07.546Z,11.40
2023-04-30T06:47:36.503Z,11.30
2023-04-30T06:50:05.432Z,11.40
2023-04-30T06:52:33.044Z,11.40
2023-04-30T06:55:01.055Z,11.30
2023-04-30T06:57:31.946Z,11.30
2023-04-30T06:59:59.227Z,11.10
2023-04-30T07:02:26.567Z,10.90
2023-04-30T07:04:54.408Z,11.00
2023-04-30T07:07:23.611Z,11.30
2023-04-30T07:09:53.426Z,11.40
2023-04-30T07:12:24.770Z,11.90
2023-04-30T07:14:52.314Z,11.90
2023-04-30T07:17:19.835Z,12.20
2023-04-30T07:19:50.091Z,12.70
2023-04-30T07:22:17.356Z,13.00
2023-04-30T07:24:47.618Z,13.00
2023-04-30T07:27:17.831Z,13.10
2023-04-30T07:29:49.036Z,13.40
2023-04-30T07:32:19.587Z,12.80
2023-04-30T07:34:48.705Z,12.50
2023-04-30T07:37:19.665Z,12.30
2023-04-30T07:39:53.912Z,12.00
2023-04-30T07:42:21.808Z,13.60
2023-04-30T07:44:49.248Z,11.90
2023-04-30T07:47:23.373Z,11.70
2023-04-30T07:50:09.613Z,12.10
2023-04-30T07:52:54.929Z,11.50
2023-04-30T07:55:32.674Z,13.20
2023-04-30T07:58:15.277Z,13.20
2023-04-30T08:00:57.138Z,13.40
2023-04-30T08:03:25.344Z,13.50
2023-04-30T08:05:53.640Z,13.70
2023-04-30T08:08:39.441Z,13.80
2023-04-30T08:11:11.843Z,13.20
2023-04-30T08:13:42.956Z,13.00
2023-04-30T08:16:23.743Z,13.10
2023-04-30T08:18:56.441Z,13.80
2023-04-30T08:21:24.720Z,13.50
2023-04-30T08:23:56.093Z,14.60
2023-04-30T08:27:24.498Z,14.00
2023-04-30T08:30:18.431Z,13.90
2023-04-30T08:32:57.802Z,14.40
2023-04-30T08:35:41.236Z,14.30
2023-04-30T08:38:13.618Z,14.60
2023-04-30T08:40:54.230Z,14.80
2023-04-30T08:43:23.141Z,16.00
2023-04-30T08:45:56.382Z,14.40
2023-04-30T08:48:26.582Z,14.80
2023-04-30T08:50:56.768Z,14.70
2023-04-30T08:53:27.353Z,14.60
2023-04-30T08:55:55.792Z,13.80
2023-04-30T08:58:23.801Z,14.10
2023-04-30T09:00:57.676Z,15.60
2023-04-30T09:03:41.385Z,13.90
2023-04-30T09:06:15.822Z,14.00
2023-04-30T09:08:56.308Z,14.00
2023-04-30T09:11:27.962Z,14.40
2023-04-30T09:14:02.441Z,14.40
2023-04-30T09:16:53.867Z,14.70
2023-04-30T09:19:30.791Z,14.70
2023-04-30T09:22:00.009Z,15.00
2023-04-30T09:24:51.365Z,15.10
2023-04-30T09:27:23.197Z,15.20
2023-04-30T09:29:59.580Z,14.70
2023-04-30T09:32:32.490Z,14.70
2023-04-30T09:35:08.996Z,14.90
2023-04-30T09:38:07.272Z,15.20
2023-04-30T09:40:42.110Z,15.60
2023-04-30T09:43:21.487Z,14.80
2023-04-30T09:45:55.012Z,13.70
2023-04-30T09:48:24.053Z,14.40
2023-04-30T09:50:55.455Z,14.50
2023-04-30T09:53:26.465Z,14.70
2023-04-30T09:55:55.309Z,14.60
2023-04-30T09:58:28.882Z,14.80
2023-04-30T10:01:01.225Z,14.60
2023-04-30T10:03:29.261Z,14.00
2023-04-30T10:05:57.071Z,14.00
2023-04-30T10:08:40.086Z,14.20
2023-04-30T10:11:09.704Z,14.70
2023-04-30T10:13:45.889Z,14.20
2023-04-30T10:16:34.460Z,14.70
2023-04-30T10:19:15.488Z,14.80
2023-04-30T10:21:46.059Z,15.20
2023-04-30T10:24:15.049Z,16.00
2023-04-30T10:27:07.989Z,16.80
2023-04-30T10:30:06.984Z,16.60
2023-04-30T10:33:16.968Z,16.40
2023-04-30T10:35:57.508Z,16.70
2023-04-30T10:38:30.560Z,16.90
2023-04-30T10:40:59.998Z,17.20
2023-04-30T10:43:30.259Z,17.50
2023-04-30T10:45:59.149Z,17.70
2023-04-30T10:48:28.241Z,18.10
2023-04-30T10:51:00.012Z,18.30
2023-04-30T10:53:31.862Z,18.80
2023-04-30T10:56:09.147Z,19.00
2023-04-30T10:58:40.821Z,19.60
2023-04-30T11:01:17.800Z,19.90
2023-04-30T11:04:08.791Z,19.90
2023-04-30T11:07:15.840Z,19.50
2023-04-30T11:09:45.752Z,20.30
2023-04-30T11:12:22.020Z,21.20
2023-04-30T11:14:50.658Z,21.20
2023-04-30T11:17:25.549Z,20.90
2023-04-30T11:19:55.026Z,21.10
2023-04-30T11:22:36.497Z,21.00
2023-04-30T11:25:13.694Z,21.00
2023-04-30T11:27:46.310Z,20.70
2023-04-30T11:30:24.356Z,20.90
2023-04-30T11:32:51.741Z,21.40
2023-04-30T11:35:22.230Z,21.80
2023-04-30T11:37:49.702Z,21.90
2023-04-30T11:40:16.836Z,21.00
2023-04-30T11:42:46.098Z,20.20
2023-04-30T11:45:23.319Z,19.50
2023-04-30T11:47:53.740Z,19.20
2023-04-30T11:50:33.639Z,18.90
2023-04-30T11:53:05.603Z,20.10
2023-04-30T11:55:33.011Z,19.00
2023-04-30T11:58:00.551Z,18.90
2023-04-30T12:00:31.691Z,19.40
2023-04-30T12:03:03.901Z,19.70
2023-04-30T12:05:31.396Z,19.50
2023-04-30T12:08:08.795Z,20.10
2023-04-30T12:10:36.641Z,21.30
2023-04-30T12:13:03.969Z,21.60
2023-04-30T12:15:33.033Z,21.80
2023-04-30T12:18:12.514Z,22.30
2023-04-30T12:20:40.939Z,22.30
2023-04-30T12:23:08.722Z,23.10
2023-04-30T12:25:45.739Z,23.70
2023-04-30T12:28:13.031Z,24.00
2023-04-30T12:30:43.325Z,23.30
2023-04-30T12:33:11.497Z,23.50
2023-04-30T12:35:43.300Z,21.80
2023-04-30T12:38:10.470Z,22.10
2023-04-30T12:40:37.843Z,22.30
2023-04-30T12:43:09.325Z,23.10
2023-04-30T12:45:53.859Z,23.60
2023-04-30T12:48:25.890Z,21.60
2023-04-30T12:50:56.362Z,20.40
2023-04-30T12:53:24.190Z,21.80
2023-04-30T12:56:16.525Z,22.90
2023-04-30T12:58:47.304Z,24.10
2023-04-30T13:01:20.477Z,24.80
2023-04-30T13:03:48.218Z,24.60
2023-04-30T13:06:16.027Z,24.70
2023-04-30T13:08:57.287Z,24.10
2023-04-30T13:11:27.342Z,23.80
2023-04-30T13:13:58.289Z,22.50
2023-04-30T13:16:27.358Z,22.30
2023-04-30T13:18:55.167Z,23.60
2023-04-30T13:21:22.897Z,24.20
2023-04-30T13:23:53.708Z,23.60
2023-04-30T13:26:23.361Z,22.20
2023-04-30T13:28:55.050Z,22.60
2023-04-30T13:31:25.241Z,23.00
2023-04-30T13:33:56.557Z,24.10
2023-04-30T13:36:23.707Z,25.10
2023-04-30T13:38:51.577Z,26.20
2023-04-30T13:41:18.741Z,26.90
2023-04-30T13:43:47.625Z,27.00
2023-04-30T13:46:15.583Z,27.30
2023-04-30T13:48:43.139Z,27.50
2023-04-30T13:51:10.314Z,27.40
2023-04-30T13:53:37.750Z,27.10
2023-04-30T13:56:05.776Z,25.80
2023-04-30T13:58:33.318Z,22.90
2023-04-30T14:01:00.514Z,20.10
2023-04-30T14:03:27.937Z,18.30
2023-04-30T14:05:55.545Z,16.80
2023-04-30T14:08:23.582Z,15.70
2023-04-30T14:10:50.956Z,15.00
2023-04-30T14:13:18.088Z,14.50
2023-04-30T14:15:45.410Z,14.00
2023-04-30T14:18:12.708Z,13.60
2023-04-30T14:20:40.328Z,13.40
2023-04-30T14:23:08.659Z,13.20
2023-04-30T14:25:36.034Z,13.10
2023-04-30T14:28:03.187Z,12.90
2023-04-30T14:30:30.394Z,12.70
2023-04-30T14:32:57.730Z,12.60
2023-04-30T14:35:24.921Z,12.40
2023-04-30T14:37:52.116Z,12.40
2023-04-30T14:40:19.950Z,12.50
2023-04-30T14:42:47.150Z,12.50
2023-04-30T14:45:15.219Z,12.60
2023-04-30T14:47:42.429Z,12.50
2023-04-30T14:50:10.865Z,12.50
2023-04-30T14:52:39.599Z,12.50
2023-04-30T14:55:07.307Z,12.40
2023-04-30T14:57:35.088Z,12.20
2023-04-30T15:00:02.559Z,12.20
2023-04-30T15:02:29.963Z,12.00
2023-04-30T15:04:57.298Z,11.90
2023-04-30T15:07:24.521Z,11.90
2023-04-30T15:09:52.773Z,12.00
2023-04-30T15:12:20.252Z,11.80
2023-04-30T15:14:47.539Z,11.80
2023-04-30T15:17:15.000Z,11.80
2023-04-30T15:19:42.163Z,12.00
2023-04-30T15:22:09.534Z,12.10
2023-04-30T15:24:36.953Z,12.20
2023-04-30T15:27:04.436Z,12.00
2023-04-30T15:29:31.614Z,11.90
2023-04-30T15:31:59.590Z,11.90
2023-04-30T15:34:27.110Z,12.00
2023-04-30T15:36:54.405Z,12.00
2023-04-30T15:39:21.826Z,12.00
2023-04-30T15:41:49.022Z,12.00
2023-04-30T15:44:16.421Z,12.10
2023-04-30T15:46:43.678Z,12.20
2023-04-30T15:49:10.934Z,12.30
2023-04-30T15:51:38.715Z,12.30
2023-04-30T15:54:11.074Z,12.30
2023-04-30T15:56:38.597Z,12.30
2023-04-30T15:59:06.316Z,12.10
2023-04-30T16:01:33.762Z,12.10
2023-04-30T16:04:01.482Z,12.00
2023-04-30T16:06:30.003Z,12.00
2023-04-30T16:08:57.442Z,12.00
2023-04-30T16:11:24.718Z,12.10
2023-04-30T16:13:52.050Z,12.00
2023-04-30T16:16:19.527Z,12.00
2023-04-30T16:18:46.798Z,12.00
2023-04-30T16:21:14.088Z,12.00
2023-04-30T16:23:41.386Z,11.80
2023-04-30T16:26:08.798Z,11.80
2023-04-30T16:28:36.072Z,11.80
2023-04-30T16:31:03.526Z,11.80
2023-04-30T16:33:30.880Z,11.70
2023-04-30T16:35:59.775Z,11.70
2023-04-30T16:38:27.977Z,11.70
2023-04-30T16:40:55.705Z,11.70
2023-04-30T16:43:23.052Z,11.90
2023-04-30T16:45:50.725Z,11.90
2023-04-30T16:48:18.972Z,12.00
2023-04-30T16:50:48.898Z,12.00
2023-04-30T16:53:16.465Z,12.00
2023-04-30T16:55:44.362Z,12.00
2023-04-30T16:58:11.585Z,11.90
2023-04-30T17:00:39.152Z,11.80
2023-04-30T17:03:06.864Z,11.80
2023-04-30T17:05:34.549Z,11.80
2023-04-30T17:08:02.154Z,11.90
2023-04-30T17:10:30.319Z,11.80
2023-04-30T17:12:59.487Z,11.80
2023-04-30T17:15:27.267Z,12.60
2023-04-30T17:17:54.643Z,11.80
2023-04-30T17:20:21.943Z,11.70
2023-04-30T17:22:49.648Z,11.70
2023-04-30T17:25:17.414Z,11.70
2023-04-30T17:27:45.283Z,11.50
2023-04-30T17:30:13.215Z,11.50
2023-04-30T17:32:44.199Z,11.40
2023-04-30T17:35:14.272Z,11.30
2023-04-30T17:37:41.373Z,11.30
2023-04-30T17:40:09.377Z,11.30
2023-04-30T17:42:36.843Z,11.20
2023-04-30T17:45:17.043Z,11.20
2023-04-30T17:47:46.073Z,11.20
2023-04-30T17:50:18.785Z,11.20
2023-04-30T17:52:47.053Z,11.20
2023-04-30T17:55:15.553Z,11.10
2023-04-30T17:57:43.193Z,11.30
2023-04-30T18:00:11.461Z,11.10
2023-04-30T18:02:41.828Z,11.10
2023-04-30T18:05:12.036Z,11.20
2023-04-30T18:07:42.763Z,11.00
2023-04-30T18:10:10.104Z,11.00
2023-04-30T18:12:38.367Z,10.90
2023-04-30T18:15:09.897Z,10.90
2023-04-30T18:17:40.396Z,10.90
2023-04-30T18:20:12.320Z,10.90
2023-04-30T18:22:43.526Z,10.80
2023-04-30T18:25:13.294Z,10.80
2023-04-30T18:27:43.946Z,10.70
2023-04-30T18:30:12.624Z,10.70
2023-04-30T18:32:42.079Z,10.70
2023-04-30T18:35:10.228Z,10.60
2023-04-30T18:37:40.822Z,10.40
2023-04-30T18:40:09.004Z,10.10
2023-04-30T18:42:39.435Z,9.90
2023-04-30T18:45:09.184Z,9.60
2023-04-30T18:47:36.743Z,9.50
2023-04-30T18:50:10.721Z,9.40
2023-04-30T18:52:38.050Z,9.30
2023-04-30T18:55:13.931Z,9.20
2023-04-30T18:57:44.432Z,9.00
2023-04-30T19:00:14.128Z,8.90
2023-04-30T19:02:43.089Z,8.80
2023-04-30T19:05:10.781Z,8.70
2023-04-30T19:07:37.973Z,8.60
2023-04-30T19:10:07.145Z,8.60
2023-04-30T19:12:51.934Z,8.60
2023-04-30T19:15:25.605Z,8.60
2023-04-30T19:18:17.242Z,8.60
2023-04-30T19:20:59.459Z,8.50
2023-04-30T19:23:49.530Z,8.40
2023-04-30T19:26:46.274Z,8.30
2023-04-30T19:29:13.407Z,8.30
2023-04-30T19:31:43.608Z,8.20
2023-04-30T19:34:11.113Z,8.20
2023-04-30T19:36:38.213Z,8.10
2023-04-30T19:39:10.009Z,8.10
2023-04-30T19:41:38.077Z,8.00
2023-04-30T19:44:05.317Z,8.00
2023-04-30T19:46:32.466Z,8.00
2023-04-30T19:48:59.796Z,8.00
2023-04-30T19:51:27.054Z,8.00
2023-04-30T19:53:54.938Z,7.90
2023-04-30T19:56:22.280Z,7.80
2023-04-30T19:58:49.449Z,7.70
2023-04-30T20:01:17.277Z,7.70
2023-04-30T20:03:44.844Z,7.70
2023-04-30T20:06:12.418Z,7.70
2023-04-30T20:08:39.529Z,7.70
2023-04-30T20:11:06.959Z,7.70
2023-04-30T20:13:34.124Z,7.70
2023-04-30T20:16:01.418Z,7.70
2023-04-30T20:18:28.571Z,7.60
2023-04-30T20:20:58.448Z,7.60
2023-04-30T20:23:25.651Z,7.70
2023-04-30T20:25:54.947Z,7.60
2023-04-30T20:28:22.187Z,7.60
2023-04-30T20:30:49.487Z,7.60
2023-04-30T20:33:16.734Z,7.50
2023-04-30T20:35:47.259Z,7.60
2023-04-30T20:38:18.853Z,7.50
2023-04-30T20:40:47.064Z,7.50
2023-04-30T20:43:14.630Z,7.50
2023-04-30T20:45:44.891Z,7.50
2023-04-30T20:48:12.113Z,7.40
2023-04-30T20:50:40.003Z,7.40
2023-04-30T20:53:09.611Z,7.30
2023-04-30T20:55:38.124Z,7.20
2023-04-30T20:58:05.338Z,7.10
2023-04-30T21:00:32.529Z,7.00
2023-04-30T21:02:59.964Z,7.00
2023-04-30T21:05:28.621Z,7.00
2023-04-30T21:08:00.880Z,6.90
2023-04-30T21:10:35.186Z,7.00
2023-04-30T21:13:06.421Z,7.00
2023-04-30T21:15:36.048Z,7.00
2023-04-30T21:18:03.602Z,7.10
2023-04-30T21:20:31.499Z,7.10
2023-04-30T21:22:58.974Z,7.00
2023-04-30T21:25:26.727Z,6.90
2023-04-30T21:27:53.912Z,7.00
2023-04-30T21:30:24.247Z,7.00
2023-04-30T21:32:58.113Z,7.00
2023-04-30T21:35:27.408Z,7.00
2023-04-30T21:37:54.730Z,7.20
2023-04-30T21:40:21.934Z,6.90
2023-04-30T21:42:49.064Z,6.80
2023-04-30T21:45:16.340Z,6.80
2023-04-30T21:47:44.734Z,6.80
2023-04-30T21:50:12.287Z,6.80
2023-04-30T21:52:41.763Z,6.90
2023-04-30T21:55:09.674Z,6.90
2023-04-30T21:57:36.858Z,6.90
2023-04-30T22:00:06.409Z,6.80
2023-04-30T22:02:33.762Z,6.80
2023-04-30T22:05:02.241Z,6.80
2023-04-30T22:07:29.978Z,6.70
2023-04-30T22:09:58.560Z,6.60
2023-04-30T22:12:26.088Z,6.60
2023-04-30T22:14:55.057Z,6.60
2023-04-30T22:17:22.734Z,6.60
2023-04-30T22:19:49.919Z,6.50
2023-04-30T22:22:17.323Z,6.50
2023-04-30T22:24:44.393Z,6.50
2023-04-30T22:27:11.615Z,6.40
2023-04-30T22:29:38.765Z,6.40
2023-04-30T22:32:07.128Z,6.30
2023-04-30T22:34:40.183Z,6.20
2023-04-30T22:37:10.866Z,6.20
2023-04-30T22:39:39.012Z,6.20
2023-04-30T22:42:06.437Z,6.10
2023-04-30T22:44:34.324Z,6.10
2023-04-30T22:47:02.367Z,6.00
2023-04-30T22:49:32.029Z,6.00
2023-04-30T22:52:00.158Z,5.90
2023-04-30T22:54:27.421Z,5.90
2023-04-30T22:56:54.576Z,5.90
2023-04-30T22:59:21.772Z,6.00
2023-04-30T23:01:49.264Z,6.00
2023-04-30T23:04:16.560Z,6.10
2023-04-30T23:06:43.858Z,6.20
2023-04-30T23:09:12.738Z,6.20
2023-04-30T23:11:39.940Z,6.20
2023-04-30T23:14:07.060Z,6.30
2023-04-30T23:16:34.180Z,6.20
2023-04-30T23:19:01.374Z,6.20
2023-04-30T23:21:28.513Z,6.20
2023-04-30T23:23:55.642Z,6.10
2023-04-30T23:26:23.202Z,6.10
2023-04-30T23:28:51.163Z,6.10
2023-04-30T23:31:18.522Z,5.90
2023-04-30T23:33:45.704Z,6.10
2023-04-30T23:36:12.840Z,6.10
2023-04-30T23:38:42.845Z,6.10
2023-04-30T23:41:09.950Z,6.10
2023-04-30T23:43:41.073Z,6.10
2023-04-30T23:46:08.832Z,6.10
2023-04-30T23:48:35.966Z,6.10
2023-04-30T23:51:04.952Z,6.10
2023-04-30T23:53:32.353Z,6.00
2023-04-30T23:56:00.012Z,6.00
2023-04-30T23:58:30.305Z,6.00
